Latest Weather Observations for Mortlake

IDV60801

Issued at 2:02 am EST Tuesday 17 May 2022 (issued every 10 minutes, with the page automatically refreshed every 10 minutes)

About weather observations | Map of weather stations | Latest weather observations for VIC | Other Formats
Station Details ID: 090176 Name: MORTLAKE RACECOURSE Lat: -38.07 Lon: 142.77 Height: 130.0 m
Data from the previous 72 hours. | See also: Recent months at Mortlake
Date/Time
EST
Temp
°C
App
Temp
°C
Dew
Point
°C
Rel
Hum
%
Delta-T
°C
Wind Press
QNH
hPa
Press
MSL
hPa
Rain since
9am
mm
Dir  Spd
km/h
Gust
km/h
Spd
kts
Gust
kts
17/02:00am 7.7 3.9 7.7 100 0.0 NW 17 24 9 13 1016.3 1016.4 0.4
17/01:30am 7.3 3.4 7.3 100 0.0 NW 17 20 9 11 1016.2 1016.3 0.4
17/01:00am 7.2 4.1 7.2 100 0.0 NW 13 19 7 10 1016.1 1016.2 0.4
17/12:30am 7.3 3.8 7.3 100 0.0 NW 15 19 8 10 1016.0 1016.1 0.4
17/12:00am 6.4 3.1 6.4 100 0.0 NW 13 17 7 9 1016.1 1016.2 0.4
 
Date/Time
EST
Temp
°C
App
Temp
°C
Dew
Point
°C
Rel
Hum
%
Delta-T
°C
Wind Press
QNH
hPa
Press
MSL
hPa
Rain since
9am
mm
Dir  Spd
km/h
Gust
km/h
Spd
kts
Gust
kts
16/11:30pm 7.7 3.9 7.7 100 0.0 NW 17 22 9 12 1015.9 1015.9 0.4
16/11:00pm 8.0 4.3 8.0 100 0.0 NW 17 24 9 13 1016.0 1016.1 0.4
16/10:30pm 7.5 4.5 7.5 100 0.0 NW 13 19 7 10 1016.0 1016.1 0.4
16/10:00pm 8.2 4.2 8.2 100 0.0 NW 19 28 10 15 1015.6 1015.6 0.4
16/09:30pm 7.5 4.1 7.5 100 0.0 NW 15 20 8 11 1015.4 1015.4 0.4
16/09:00pm 7.3 4.2 7.3 100 0.0 NW 13 17 7 9 1015.3 1015.3 0.4
16/08:30pm 7.8 4.8 7.8 100 0.0 NW 13 17 7 9 1015.1 1015.1 0.4
16/08:00pm 7.7 5.1 7.7 100 0.0 WNW 11 15 6 8 1015.1 1015.1 0.4
16/07:30pm 8.6 5.8 8.6 100 0.0 WNW 13 17 7 9 1014.9 1014.9 0.4
16/07:00pm 9.4 7.5 8.9 97 0.2 WNW 9 13 5 7 1014.4 1014.4 0.4
16/06:30pm 9.7 5.8 8.5 92 0.6 WNW 19 30 10 16 1014.0 1014.0 0.4
16/06:00pm 9.8 5.6 8.2 90 0.8 W 20 33 11 18 1013.5 1013.6 0.4
16/05:30pm 11.1 6.7 7.2 77 1.9 WNW 20 28 11 15 1013.1 1013.2 0.0
16/05:00pm 11.4 6.2 7.1 75 2.1 WNW 24 39 13 21 1013.1 1013.2 0.0
16/04:30pm 11.6 8.2 7.7 77 1.9 W 15 22 8 12 1012.8 1012.9 0.0
16/04:00pm 13.0 6.6 6.8 66 3.0 WNW 30 44 16 24 1012.2 1012.3 0.0
16/03:38pm 13.1 7.2 7.5 69 2.8 WNW 28 46 15 25 1012.0 1012.1 0.0
16/03:30pm 12.5 8.1 8.8 78 1.9 W 22 32 12 17 1012.0 1012.1 0.0
16/03:16pm 12.9 6.6 7.4 69 2.7 WNW 30 52 16 28 1011.9 1012.0 0.0
16/03:00pm 13.0 7.0 7.2 68 2.8 WNW 28 41 15 22 1011.6 1011.7 0.0
16/02:30pm 13.1 8.5 8.0 71 2.5 WNW 22 35 12 19 1011.6 1011.7 0.0
16/02:00pm 11.5 8.7 10.1 91 0.7 W 15 22 8 12 1011.8 1011.9 0.0
16/01:32pm 13.2 6.7 6.3 63 3.3 WNW 30 52 16 28 1011.7 1011.8 0.0
16/01:30pm 13.9 7.7 6.3 60 3.7 WNW 28 41 15 22 1011.5 1011.6 0.0
16/01:00pm 15.4 9.2 6.2 54 4.5 NW 28 43 15 23 1011.5 1011.6 0.0
16/12:30pm 14.3 7.4 7.4 63 3.4 WNW 33 46 18 25 1012.0 1012.1 0.0
16/12:00pm 13.5 7.6 7.7 68 2.9 WNW 28 37 15 20 1012.4 1012.5 0.0
16/11:30am 13.3 6.6 8.0 70 2.6 WNW 33 43 18 23 1012.7 1012.8 0.0
16/11:00am 13.4 7.0 8.7 73 2.4 WNW 32 41 17 22 1012.8 1012.9 0.0
16/10:30am 12.5 7.6 8.6 77 2.0 NW 24 33 13 18 1012.8 1012.9 0.0
16/10:00am 12.0 6.6 9.4 84 1.3 NW 28 35 15 19 1012.9 1013.0 0.0
16/09:30am 11.9 7.4 10.1 89 0.9 NW 24 32 13 17 1012.9 1013.0 0.0
16/09:00am 11.3 7.2 10.2 93 0.6 NW 22 30 12 16 1012.6 1012.7 1.4
16/08:30am 11.0 7.4 9.9 93 0.6 NW 19 26 10 14 1012.2 1012.3 1.4
16/08:00am 10.5 7.2 9.7 95 0.4 NW 17 24 9 13 1011.9 1012.0 1.4
16/07:30am 10.5 7.3 9.9 96 0.3 WNW 17 24 9 13 1011.7 1011.8 1.4
16/07:00am 10.3 7.1 10.1 99 0.1 WNW 17 24 9 13 1011.6 1011.7 1.4
16/06:30am 10.0 6.4 10.0 100 0.0 NW 19 26 10 14 1011.1 1011.2 1.4
16/06:00am 10.2 7.1 10.2 100 0.0 NW 17 20 9 11 1010.8 1010.9 1.4
16/05:30am 10.3 6.5 9.7 96 0.3 NW 20 28 11 15 1010.6 1010.7 1.4
16/05:00am 10.5 6.9 10.5 100 0.0 NW 20 28 11 15 1010.2 1010.3 1.4
16/04:30am 10.6 7.0 10.4 99 0.1 NW 20 32 11 17 1010.1 1010.2 1.4
16/04:00am 10.6 6.2 10.3 98 0.2 NW 24 37 13 20 1009.8 1009.9 1.4
16/03:30am 10.4 6.3 10.1 98 0.2 NW 22 32 12 17 1009.7 1009.8 1.4
16/03:00am 10.4 6.6 9.8 96 0.3 NW 20 28 11 15 1009.8 1009.9 1.4
16/02:30am 10.5 6.3 9.7 95 0.4 NW 22 32 12 17 1010.0 1010.1 1.4
16/02:00am 10.3 6.1 9.8 97 0.3 NW 22 30 12 16 1009.9 1010.0 1.4
16/01:30am 10.2 6.5 10.1 99 0.1 NW 20 26 11 14 1010.0 1010.1 1.4
16/01:00am 9.9 6.2 9.6 98 0.2 NNW 19 24 10 13 1010.2 1010.3 1.4
16/12:30am 9.5 6.2 9.5 100 0.0 NNW 17 20 9 11 1010.1 1010.2 1.4
16/12:00am 9.2 6.6 9.2 100 0.0 NW 13 15 7 8 1010.1 1010.2 1.4
 
Date/Time
EST
Temp
°C
App
Temp
°C
Dew
Point
°C
Rel
Hum
%
Delta-T
°C
Wind Press
QNH
hPa
Press
MSL
hPa
Rain since
9am
mm
Dir  Spd
km/h
Gust
km/h
Spd
kts
Gust
kts
15/11:30pm 9.2 7.0 9.2 100 0.0 NW 11 15 6 8 1010.1 1010.2 1.4
15/11:00pm 10.6 8.3 10.6 100 0.0 NW 13 17 7 9 1010.2 1010.3 1.4
15/10:30pm 11.1 8.2 11.1 100 0.0 NW 17 24 9 13 1010.1 1010.2 1.4
15/10:00pm 11.7 8.5 11.1 96 0.3 NW 19 26 10 14 1010.1 1010.2 1.4
15/09:30pm 11.2 8.2 10.7 97 0.3 NW 17 24 9 13 1009.9 1010.0 1.4
15/09:00pm 11.8 8.5 11.0 95 0.4 WNW 19 28 10 15 1009.5 1009.6 1.4
15/08:30pm 12.5 9.2 11.7 95 0.4 WNW 20 30 11 16 1009.0 1009.0 1.4
15/08:00pm 12.8 7.8 12.2 96 0.3 WNW 30 41 16 22 1008.8 1008.8 1.4
15/07:30pm 13.1 8.4 13.1 100 0.0 WNW 30 43 16 23 1008.3 1008.3 1.4
15/07:16pm 13.1 9.1 12.9 99 0.1 WNW 26 46 14 25 1008.0 1008.0 1.4
15/07:00pm 14.2 10.8 13.7 97 0.3 NW 24 35 13 19 1007.5 1007.5 0.0
15/06:30pm 14.1 10.7 13.6 97 0.3 NW 24 37 13 20 1007.4 1007.4 0.0
15/06:00pm 14.3 9.7 13.5 95 0.4 NW 30 44 16 24 1007.1 1007.1 0.0
15/05:30pm 14.3 10.0 14.3 100 0.0 NW 30 46 16 25 1006.9 1006.9 0.0
15/05:00pm 14.0 9.2 14.0 100 0.0 WNW 32 52 17 28 1007.1 1007.1 0.0
15/04:43pm 16.3 10.1 11.5 73 2.6 WNW 35 54 19 29 1006.6 1006.6 0.0
15/04:30pm 17.3 10.8 10.2 63 3.8 NW 35 52 19 28 1006.3 1006.3 0.0
15/04:26pm 17.5 11.3 9.9 61 4.0 NW 33 52 18 28 1006.1 1006.1 0.0
15/04:00pm 18.4 12.3 10.3 59 4.4 NW 33 46 18 25 1006.0 1006.0 0.0
15/03:30pm 17.8 11.1 9.7 59 4.3 NW 35 50 19 27 1006.2 1006.2 0.0
15/03:02pm 18.2 12.0 9.5 57 4.6 NW 32 50 17 27 1006.3 1006.3 0.0
15/03:00pm 18.2 12.4 9.5 57 4.6 NW 30 44 16 24 1006.3 1006.3 0.0
15/02:58pm 18.5 12.4 9.8 57 4.6 NW 32 52 17 28 1006.4 1006.4 0.0
15/02:30pm 17.8 11.5 9.7 59 4.3 NW 33 50 18 27 1006.6 1006.6 0.0
15/02:00pm 17.8 11.1 9.7 59 4.3 NW 35 48 19 26 1006.8 1006.8 0.0
15/01:35pm 17.4 10.7 9.6 60 4.1 NW 35 56 19 30 1007.0 1007.0 0.0
15/01:30pm 17.6 10.9 9.5 59 4.3 NW 35 50 19 27 1007.1 1007.1 0.0
15/01:00pm 18.3 11.6 9.6 57 4.6 NW 35 57 19 31 1007.6 1007.6 0.0
15/12:38pm 18.4 11.3 9.7 57 4.6 NW 37 57 20 31 1007.9 1007.9 0.0
15/12:30pm 18.4 11.1 10.3 59 4.4 NW 39 56 21 30 1008.1 1008.1 0.0
15/12:16pm 18.6 12.1 10.4 59 4.4 NW 35 54 19 29 1008.4 1008.4 0.0
15/12:00pm 17.8 10.9 10.2 61 4.1 NW 37 50 20 27 1008.5 1008.5 0.0
15/11:30am 17.6 11.2 11.9 69 3.1 NW 37 54 20 29 1009.2 1009.2 0.0
15/11:00am 16.6 11.7 12.4 76 2.3 NNW 30 50 16 27 1009.5 1009.6 0.0
15/10:59am 16.9 12.5 12.8 77 2.3 NNW 28 50 15 27 1009.6 1009.7 0.0
15/10:30am 14.7 11.2 14.5 99 0.1 NNW 26 37 14 20 1009.9 1010.0 0.0
15/10:14am 14.1 10.1 14.1 100 0.0 NW 28 48 15 26 1010.0 1010.1 0.0
15/10:00am 15.1 11.1 13.0 87 1.2 NNW 26 33 14 18 1010.1 1010.2 0.0
15/09:30am 15.1 11.1 13.0 87 1.2 NNW 26 39 14 21 1010.2 1010.3 0.0
15/09:00am 14.1 12.1 13.8 98 0.2 NNW 17 24 9 13 1010.5 1010.6 0.0
15/08:30am 13.3 10.7 13.3 100 0.0 NNW 19 26 10 14 1010.8 1010.9 0.0
15/08:00am 13.3 9.8 13.3 100 0.0 NW 24 35 13 19 1010.9 1011.0 0.0
15/07:30am 13.0 11.5 13.0 100 0.0 NNW 13 17 7 9 1010.5 1010.6 0.0
15/07:00am 12.3 11.3 12.3 100 0.0 N 9 13 5 7 1010.4 1010.5 0.0
15/06:30am 10.9 9.9 10.9 100 0.0 NNW 7 9 4 5 1010.5 1010.6 0.0
15/06:00am 12.6 10.6 12.6 100 0.0 N 15 20 8 11 1010.3 1010.4 0.0
15/05:30am 13.8 11.5 13.0 95 0.4 N 17 26 9 14 1010.2 1010.3 0.0
15/05:00am 12.9 12.1 12.9 100 0.0 N 9 13 5 7 1010.3 1010.4 0.0
15/04:30am 10.9 9.9 10.9 100 0.0 N 7 9 4 5 1010.5 1010.6 0.0
15/04:00am 11.3 10.0 11.3 100 0.0 NNW 9 9 5 5 1010.6 1010.7 0.0
15/03:30am 11.9 10.8 11.9 100 0.0 NNW 9 13 5 7 1010.9 1011.0 0.0
15/03:00am 13.2 12.0 12.7 97 0.3 NNW 11 15 6 8 1011.2 1011.3 0.0
15/02:30am 14.1 12.7 13.5 96 0.3 NNW 13 15 7 8 1011.3 1011.4 0.0
15/02:00am 13.4 11.9 13.2 99 0.1 NNW 13 15 7 8 1011.5 1011.6 0.0
15/01:30am 13.1 11.5 12.8 98 0.2 NW 13 17 7 9 1011.5 1011.6 0.0
15/01:00am 12.6 11.3 12.6 100 0.0 NW 11 17 6 9 1011.7 1011.8 0.0
15/12:30am 11.9 10.4 11.9 100 0.0 NW 11 13 6 7 1011.4 1011.5 0.0
15/12:00am 11.9 10.8 11.9 100 0.0 NNW 9 13 5 7 1011.5 1011.6 0.0
 
Date/Time
EST
Temp
°C
App
Temp
°C
Dew
Point
°C
Rel
Hum
%
Delta-T
°C
Wind Press
QNH
hPa
Press
MSL
hPa
Rain since
9am
mm
Dir  Spd
km/h
Gust
km/h
Spd
kts
Gust
kts
14/11:30pm 12.0 10.9 12.0 100 0.0 NNW 9 13 5 7 1011.6 1011.7 0.0
14/11:00pm 12.2 10.8 12.2 100 0.0 NW 11 17 6 9 1011.6 1011.7 0.0
14/10:30pm 11.4 10.1 11.4 100 0.0 NNW 9 13 5 7 1011.5 1011.6 0.0
14/10:00pm 11.9 10.7 11.6 98 0.2 NW 9 13 5 7 1011.5 1011.6 0.0
14/09:30pm 13.4 12.3 12.1 92 0.7 NNW 9 13 5 7 1011.5 1011.6 0.0
14/09:00pm 14.5 12.4 12.5 88 1.1 NW 15 20 8 11 1011.4 1011.5 0.0
14/08:30pm 14.0 12.9 12.0 88 1.1 NNW 9 15 5 8 1011.3 1011.4 0.0
14/08:00pm 14.9 13.6 12.6 86 1.3 NW 11 15 6 8 1011.1 1011.2 0.0
14/07:30pm 15.4 13.6 12.2 81 1.8 NNW 13 15 7 8 1010.7 1010.8 0.0
14/07:00pm 16.3 15.0 12.5 78 2.1 NNW 11 15 6 8 1010.3 1010.4 0.0
14/06:30pm 16.1 14.9 12.8 81 1.8 NNW 11 15 6 8 1009.9 1010.0 0.0
14/06:00pm 15.9 14.0 11.9 77 2.2 NNW 13 17 7 9 1009.6 1009.7 0.0
14/05:30pm 17.6 14.5 12.1 70 3.0 NW 20 28 11 15 1009.3 1009.3 0.0
14/05:00pm 17.9 14.3 11.9 68 3.3 NW 22 33 12 18 1009.0 1009.0 0.0
14/04:30pm 19.4 14.7 11.9 62 4.2 NW 28 37 15 20 1008.9 1008.9 0.0
14/04:00pm 18.5 13.7 11.8 65 3.7 NW 28 41 15 22 1008.7 1008.7 0.0
14/03:30pm 19.7 14.8 12.5 63 4.1 NW 30 44 16 24 1008.4 1008.4 0.0
14/03:00pm 19.7 14.3 12.2 62 4.2 NW 32 44 17 24 1008.3 1008.3 0.0
14/02:30pm 19.4 14.0 12.9 66 3.7 NW 33 44 18 24 1008.3 1008.3 0.0
14/02:00pm 19.2 13.3 12.5 65 3.8 NW 35 52 19 28 1007.9 1007.9 0.0
14/01:30pm 18.0 13.5 12.7 71 3.0 NNW 28 43 15 23 1007.9 1007.9 0.0
14/01:00pm 18.2 13.3 12.6 70 3.1 NNW 30 41 16 22 1008.0 1008.0 0.0
14/12:30pm 19.5 15.2 14.3 72 3.0 NNW 30 41 16 22 1008.0 1008.0 0.0
14/12:00pm 17.6 13.5 13.9 79 2.1 NNW 28 39 15 21 1008.5 1008.5 0.0
14/11:30am 16.1 12.2 14.5 90 0.9 N 28 37 15 20 1008.6 1008.6 0.0
14/11:00am 16.2 12.7 14.6 90 0.9 N 26 37 14 20 1009.0 1009.0 0.0
14/10:30am 15.5 11.6 14.4 93 0.6 N 28 43 15 23 1008.9 1008.9 0.0
14/10:00am 15.1 12.0 14.6 97 0.3 N 24 33 13 18 1008.7 1008.7 0.0
14/09:30am 15.0 11.7 15.0 100 0.0 N 26 37 14 20 1008.8 1008.8 0.0
14/09:00am 14.7 11.3 14.7 100 0.0 N 26 37 14 20 1008.8 1008.8 0.8
14/08:30am 14.6 11.1 14.6 100 0.0 N 26 35 14 19 1009.3 1009.3 0.8
14/08:00am 14.4 11.6 14.4 100 0.0 N 22 30 12 16 1008.9 1008.9 0.6
14/07:30am 14.5 11.8 14.5 100 0.0 N 22 32 12 17 1008.8 1008.8 0.6
14/07:00am 14.7 12.4 14.7 100 0.0 N 20 30 11 16 1009.0 1009.0 0.2
14/06:30am 14.9 13.6 14.9 100 0.0 N 15 20 8 11 1009.1 1009.1 0.2
14/06:00am 14.9 12.7 14.9 100 0.0 N 20 32 11 17 1009.3 1009.3 0.0
14/05:30am 15.2 12.7 15.2 100 0.0 N 22 33 12 18 1009.6 1009.7 0.0
14/05:00am 15.2 12.7 15.2 100 0.0 NNW 22 35 12 19 1009.7 1009.8 0.0
14/04:30am 15.2 12.3 15.0 99 0.1 N 24 35 13 19 1009.5 1009.6 0.0
14/04:00am 15.2 12.7 15.2 100 0.0 N 22 32 12 17 1009.4 1009.4 0.0
14/03:30am 15.2 13.3 15.2 100 0.0 N 19 30 10 16 1010.0 1010.1 0.0
14/03:00am 15.2 13.7 15.2 100 0.0 N 17 24 9 13 1010.6 1010.7 0.0
14/02:30am 15.4 13.0 15.4 100 0.0 N 22 33 12 18 1010.9 1011.0 0.0

Other formats

Comma delimited format used in spreadsheet applications
http://www.bom.gov.au/fwo/IDV60801/IDV60801.94840.axf

JavaScript Object Notation format (JSON) in row-major order
http://www.bom.gov.au/fwo/IDV60801/IDV60801.94840.json

Data quality

Most of these data are generated automatically and are frequently updated. Quality checks on data are not normally performed. It is possible for incorrect values to appear. Refer to information at About Latest Weather Observations and please check the disclaimer before using these data.